Time;durP1;ratioP1;P1;durP2;ratioP2;P2;SDS_P1;SDS_P2;PMS_P1;PMS_P2;Temp;Humidity;BMP_temperature;BMP_pressure;BME280_temperature;BME280_humidity;BME280_pressure;Samples;Min_cycle;Max_cycle;Signal;HPM_P1;HPM_P2
2023/12/20 00:00:57;;;;;;;371.27;219.63;;;1.30;99.90;;;;;;4952247;28;20062;-75
2023/12/20 00:03:24;;;;;;;534.58;259.15;;;1.30;99.90;;;;;;4952415;29;20071;-75
2023/12/20 00:05:50;;;;;;;620.10;291.58;;;1.30;99.90;;;;;;4952141;28;20034;-75
2023/12/20 00:08:16;;;;;;;422.67;228.73;;;1.30;99.90;;;;;;4952867;29;20024;-75
2023/12/20 00:10:43;;;;;;;420.90;227.55;;;1.30;99.90;;;;;;4952373;29;20031;-75
2023/12/20 00:13:10;;;;;;;468.02;235.68;;;1.40;99.90;;;;;;4952427;28;20019;-74
2023/12/20 00:15:36;;;;;;;330.02;222.65;;;1.40;99.90;;;;;;4926843;29;20024;-75
2023/12/20 00:18:02;;;;;;;350.17;216.13;;;1.40;99.90;;;;;;4952672;28;20035;-75
2023/12/20 00:20:28;;;;;;;327.27;210.00;;;1.40;99.90;;;;;;4952240;29;20035;-74
2023/12/20 00:22:57;;;;;;;410.05;217.98;;;1.40;99.90;;;;;;4952382;29;20023;-75
2023/12/20 00:25:23;;;;;;;324.67;191.73;;;1.40;99.90;;;;;;4954618;28;20515;-73
2023/12/20 00:27:49;;;;;;;393.20;210.35;;;1.40;99.90;;;;;;4956050;29;20167;-74
2023/12/20 00:30:15;;;;;;;422.48;237.63;;;1.30;99.90;;;;;;4939502;29;20455;-75
2023/12/20 00:32:46;;;;;;;365.98;225.05;;;1.20;99.90;;;;;;4956061;29;20110;-74
2023/12/20 00:35:15;;;;;;;426.52;222.65;;;1.10;99.90;;;;;;4958641;28;20082;-74
2023/12/20 00:37:44;;;;;;;365.55;230.02;;;1.10;99.90;;;;;;4959117;28;20046;-74
2023/12/20 00:40:11;;;;;;;371.80;236.55;;;1.10;99.90;;;;;;4957324;28;20944;-74
2023/12/20 00:42:37;;;;;;;384.58;246.75;;;1.20;99.90;;;;;;4957050;28;20035;-74
2023/12/20 00:45:04;;;;;;;325.30;223.48;;;1.10;99.90;;;;;;4930013;29;20052;-74
2023/12/20 00:47:31;;;;;;;446.02;287.08;;;1.20;99.90;;;;;;4961123;28;20019;-74
2023/12/20 00:49:57;;;;;;;418.42;269.77;;;1.20;99.90;;;;;;4958015;28;20030;-74
2023/12/20 00:52:23;;;;;;;477.35;270.05;;;1.10;99.90;;;;;;4958675;28;20106;-73
2023/12/20 00:54:49;;;;;;;512.70;290.17;;;1.10;99.90;;;;;;4956392;28;20078;-74
2023/12/20 00:57:15;;;;;;;553.67;274.40;;;1.10;99.90;;;;;;4959436;28;20023;-73
2023/12/20 00:59:41;;;;;;;428.65;199.07;;;1.00;99.90;;;;;;4941093;28;20117;-73
2023/12/20 01:02:08;;;;;;;527.40;207.23;;;1.00;99.90;;;;;;4960709;28;20023;-73
2023/12/20 01:04:34;;;;;;;413.75;190.23;;;0.80;99.90;;;;;;4953283;28;20046;-73
2023/12/20 01:07:00;;;;;;;284.55;161.32;;;0.70;99.90;;;;;;4956713;28;20098;-74
2023/12/20 01:09:26;;;;;;;339.58;166.65;;;0.80;99.90;;;;;;4959298;28;20372;-76
2023/12/20 01:11:53;;;;;;;317.92;161.02;;;0.90;99.90;;;;;;4961531;28;20058;-74
2023/12/20 01:14:19;;;;;;;242.95;160.05;;;1.00;99.90;;;;;;4957605;28;20114;-76
2023/12/20 01:16:45;;;;;;;234.00;167.25;;;1.00;99.90;;;;;;4954287;28;20106;-73
2023/12/20 01:19:11;;;;;;;270.83;180.13;;;1.00;99.90;;;;;;4955777;28;20119;-75
2023/12/20 01:21:37;;;;;;;222.60;166.65;;;1.00;99.90;;;;;;4960077;28;20025;-75
2023/12/20 01:24:03;;;;;;;243.32;171.88;;;1.00;99.90;;;;;;4957917;28;20028;-73
2023/12/20 01:26:29;;;;;;;207.38;146.77;;;1.00;99.90;;;;;;4958396;28;20043;-73
2023/12/20 01:28:55;;;;;;;193.80;142.48;;;1.00;99.90;;;;;;4924385;29;20091;-73
2023/12/20 01:31:21;;;;;;;197.88;151.65;;;1.00;99.90;;;;;;4958622;28;20110;-73
2023/12/20 01:33:46;;;;;;;257.52;187.57;;;1.00;99.90;;;;;;4940914;28;20079;-74
2023/12/20 01:36:12;;;;;;;257.10;191.82;;;0.90;99.90;;;;;;4958186;28;20051;-75
2023/12/20 01:38:39;;;;;;;250.02;184.00;;;0.80;99.90;;;;;;4956594;28;20031;-74
2023/12/20 01:41:04;;;;;;;287.20;206.77;;;0.70;99.90;;;;;;4938918;28;20331;-74
2023/12/20 01:43:31;;;;;;;337.40;235.05;;;0.60;99.90;;;;;;4958590;28;20031;-74
2023/12/20 01:46:00;;;;;;;564.80;300.27;;;0.50;99.90;;;;;;4965319;28;20039;-75
2023/12/20 01:48:27;;;;;;;379.85;239.32;;;0.30;99.90;;;;;;4961261;28;20034;-74
2023/12/20 01:50:53;;;;;;;347.55;230.98;;;0.40;99.90;;;;;;4956598;28;20027;-73
2023/12/20 01:53:21;;;;;;;344.30;226.45;;;0.40;99.90;;;;;;4962785;28;20055;-75
2023/12/20 01:55:49;;;;;;;411.15;243.88;;;0.30;99.90;;;;;;4956423;28;20356;-75
2023/12/20 01:58:16;;;;;;;342.20;217.38;;;0.30;99.90;;;;;;4954584;28;20430;-75
2023/12/20 02:00:42;;;;;;;340.83;222.48;;;0.30;99.90;;;;;;4956227;28;20023;-75
2023/12/20 02:03:08;;;;;;;338.77;220.00;;;0.30;99.90;;;;;;4962301;28;20023;-73
2023/12/20 02:05:36;;;;;;;371.60;226.07;;;0.40;99.90;;;;;;4956053;28;20047;-75
2023/12/20 02:08:03;;;;;;;350.63;229.10;;;0.40;99.90;;;;;;4956100;29;20059;-75
2023/12/20 02:10:29;;;;;;;333.50;209.77;;;0.40;99.90;;;;;;4956096;28;20020;-75
2023/12/20 02:12:55;;;;;;;305.08;205.90;;;0.40;99.90;;;;;;4955712;28;20383;-74
2023/12/20 02:15:21;;;;;;;336.88;213.90;;;0.40;99.90;;;;;;4964650;28;20034;-74
2023/12/20 02:17:48;;;;;;;303.75;206.07;;;0.40;99.90;;;;;;4958723;28;20028;-76
2023/12/20 02:20:14;;;;;;;283.60;203.57;;;0.30;99.90;;;;;;4955840;28;20102;-75
2023/12/20 02:22:40;;;;;;;323.70;213.00;;;0.30;99.90;;;;;;4955881;29;20036;-74
2023/12/20 02:25:06;;;;;;;320.10;211.93;;;0.20;99.90;;;;;;4955837;28;20038;-75
2023/12/20 02:27:32;;;;;;;389.85;241.50;;;0.20;99.90;;;;;;4955421;29;20035;-75
2023/12/20 02:29:58;;;;;;;308.55;198.60;;;0.10;99.90;;;;;;4955740;28;20055;-75
2023/12/20 02:32:27;;;;;;;295.42;197.45;;;0.10;99.90;;;;;;4955346;28;20070;-76
2023/12/20 02:34:54;;;;;;;285.20;199.05;;;0.10;99.90;;;;;;4955389;29;20051;-75
2023/12/20 02:37:20;;;;;;;328.30;204.60;;;0.10;99.90;;;;;;4937855;29;20031;-73
2023/12/20 02:39:46;;;;;;;298.15;197.02;;;0.10;99.90;;;;;;4955774;29;20380;-74
2023/12/20 02:42:12;;;;;;;281.08;184.00;;;0.10;99.90;;;;;;4955038;29;20102;-74
2023/12/20 02:44:38;;;;;;;301.50;198.38;;;0.10;99.90;;;;;;4955484;29;20040;-74
2023/12/20 02:47:04;;;;;;;295.98;189.85;;;0.20;99.90;;;;;;4937729;28;20078;-75
2023/12/20 02:49:30;;;;;;;274.23;188.07;;;0.20;99.90;;;;;;4955114;28;20031;-74
2023/12/20 02:51:56;;;;;;;278.52;178.63;;;0.20;99.90;;;;;;4961562;28;20027;-74
2023/12/20 02:54:21;;;;;;;249.13;171.05;;;0.10;99.90;;;;;;4955101;29;20064;-75
2023/12/20 02:56:48;;;;;;;251.98;177.23;;;0.20;99.90;;;;;;4937983;29;20019;-73
2023/12/20 02:59:14;;;;;;;245.05;170.80;;;0.10;99.90;;;;;;4955054;29;20034;-73
2023/12/20 03:01:44;;;;;;;235.25;167.57;;;0.20;99.90;;;;;;4958173;28;20019;-76
2023/12/20 03:04:10;;;;;;;227.70;162.63;;;0.20;99.90;;;;;;4954873;28;20412;-74
2023/12/20 03:06:36;;;;;;;228.18;163.77;;;0.20;99.90;;;;;;4954936;28;20432;-76
2023/12/20 03:09:02;;;;;;;252.77;175.63;;;0.20;99.90;;;;;;4954724;28;20102;-74
2023/12/20 03:11:28;;;;;;;285.38;188.52;;;0.20;99.90;;;;;;4954622;29;20078;-75
2023/12/20 03:13:55;;;;;;;304.92;199.20;;;0.20;99.90;;;;;;4954782;28;20031;-75
2023/12/20 03:16:21;;;;;;;288.92;203.60;;;0.30;99.90;;;;;;4954103;28;20033;-75
2023/12/20 03:18:46;;;;;;;298.23;204.10;;;0.30;99.90;;;;;;4946196;28;20023;-75
2023/12/20 03:21:12;;;;;;;317.58;210.10;;;0.30;99.90;;;;;;4954026;28;20158;-75
2023/12/20 03:23:38;;;;;;;274.92;202.07;;;0.40;99.90;;;;;;4953687;29;20027;-75
2023/12/20 03:26:07;;;;;;;277.90;193.82;;;0.40;99.90;;;;;;4954254;29;20162;-76
2023/12/20 03:28:34;;;;;;;235.50;176.50;;;0.40;99.90;;;;;;4937361;29;20038;-76
2023/12/20 03:31:00;;;;;;;243.85;167.13;;;0.40;99.90;;;;;;4953955;28;20031;-75
2023/12/20 03:33:26;;;;;;;268.88;187.85;;;0.30;99.90;;;;;;4935930;29;20039;-76
2023/12/20 03:35:52;;;;;;;253.10;182.45;;;0.40;99.90;;;;;;4954033;29;20054;-76
2023/12/20 03:38:17;;;;;;;253.88;174.50;;;0.40;99.90;;;;;;4954363;28;20082;-76
2023/12/20 03:40:43;;;;;;;220.15;159.00;;;0.30;99.90;;;;;;4954519;29;20026;-75
2023/12/20 03:43:09;;;;;;;219.90;158.52;;;0.20;99.90;;;;;;4949076;29;20638;-76
2023/12/20 03:45:35;;;;;;;221.93;157.73;;;0.20;99.90;;;;;;4951276;29;20510;-75
2023/12/20 03:48:01;;;;;;;217.88;154.55;;;0.20;99.90;;;;;;4953880;29;20053;-75
2023/12/20 03:50:27;;;;;;;218.98;159.00;;;0.20;99.90;;;;;;4953847;28;20062;-76
2023/12/20 03:52:53;;;;;;;218.38;154.02;;;0.30;99.90;;;;;;4953975;29;20116;-75
2023/12/20 03:55:19;;;;;;;215.88;153.57;;;0.10;99.90;;;;;;4954014;29;20027;-75
2023/12/20 03:57:45;;;;;;;188.30;140.27;;;0.00;99.90;;;;;;4953893;29;20038;-75
2023/12/20 04:00:11;;;;;;;192.73;140.07;;;-0.10;99.90;;;;;;4935768;29;20126;-75
2023/12/20 04:02:41;;;;;;;212.45;149.68;;;-0.20;99.90;;;;;;4947253;28;20027;-76
2023/12/20 04:05:08;;;;;;;200.43;144.65;;;-0.30;99.90;;;;;;4950383;29;20066;-75
2023/12/20 04:07:35;;;;;;;209.65;149.48;;;-0.30;99.90;;;;;;4952864;28;20039;-75
2023/12/20 04:10:01;;;;;;;239.63;166.27;;;-0.30;99.90;;;;;;4936714;29;20483;-75
2023/12/20 04:12:28;;;;;;;240.65;161.43;;;-0.30;99.90;;;;;;4953102;29;20023;-75
2023/12/20 04:14:54;;;;;;;276.92;181.55;;;-0.40;99.90;;;;;;4950623;29;20023;-75
2023/12/20 04:17:22;;;;;;;257.05;172.02;;;-0.40;99.90;;;;;;4947153;28;20031;-75
2023/12/20 04:19:51;;;;;;;276.60;186.45;;;-0.40;99.90;;;;;;4952189;28;20027;-75
2023/12/20 04:22:18;;;;;;;258.42;176.68;;;-0.50;99.90;;;;;;4952646;29;20058;-75
2023/12/20 04:24:44;;;;;;;267.02;184.95;;;-0.60;99.90;;;;;;4955813;28;20027;-75
2023/12/20 04:27:11;;;;;;;264.85;181.95;;;-0.60;99.90;;;;;;4961671;28;20046;-76
2023/12/20 04:29:36;;;;;;;255.48;176.35;;;-0.50;99.90;;;;;;4945471;28;20102;-73
2023/12/20 04:32:02;;;;;;;211.75;153.57;;;-0.50;99.90;;;;;;4952077;28;20135;-76
2023/12/20 04:34:28;;;;;;;208.40;141.02;;;-0.50;99.90;;;;;;4952147;29;20521;-74
2023/12/20 04:36:54;;;;;;;214.25;144.02;;;-0.40;99.90;;;;;;4953254;28;20036;-75
2023/12/20 04:39:20;;;;;;;201.63;138.27;;;-0.40;99.90;;;;;;4935602;29;20042;-75
2023/12/20 04:41:47;;;;;;;207.73;139.02;;;-0.40;99.90;;;;;;4952368;29;20035;-76
2023/12/20 04:44:13;;;;;;;195.93;132.13;;;-0.40;99.90;;;;;;4953261;29;20027;-75
2023/12/20 04:46:39;;;;;;;207.45;139.10;;;-0.40;99.90;;;;;;4948709;28;20033;-75
2023/12/20 04:49:05;;;;;;;190.65;131.15;;;-0.50;99.90;;;;;;4953795;28;20019;-76
2023/12/20 04:51:34;;;;;;;184.75;124.82;;;-0.50;99.90;;;;;;4939882;29;20050;-75
2023/12/20 04:54:00;;;;;;;193.02;124.05;;;-0.50;99.90;;;;;;4941253;29;20035;-73
2023/12/20 04:56:26;;;;;;;199.02;121.18;;;-0.60;99.90;;;;;;4943681;28;20027;-74
2023/12/20 04:58:52;;;;;;;181.30;114.15;;;-0.60;99.90;;;;;;4953379;29;20038;-74
2023/12/20 05:01:18;;;;;;;172.77;110.32;;;-0.60;99.90;;;;;;4958107;28;20024;-75
2023/12/20 05:03:44;;;;;;;169.93;107.70;;;-0.60;99.90;;;;;;4953285;28;20094;-75
2023/12/20 05:06:10;;;;;;;145.70;98.78;;;-0.60;99.90;;;;;;4953726;29;20130;-74
2023/12/20 05:08:36;;;;;;;133.43;91.15;;;-0.60;99.90;;;;;;4953332;29;20019;-74
2023/12/20 05:11:02;;;;;;;147.25;92.03;;;-0.70;99.90;;;;;;4955087;28;20035;-74
2023/12/20 05:13:28;;;;;;;133.60;87.80;;;-0.70;99.90;;;;;;4959038;28;20415;-75
2023/12/20 05:15:54;;;;;;;117.10;84.90;;;-0.70;99.90;;;;;;4955630;28;20023;-74
2023/12/20 05:18:21;;;;;;;141.02;93.47;;;-0.60;99.90;;;;;;4956390;28;20467;-73
2023/12/20 05:20:47;;;;;;;132.43;90.70;;;-0.60;99.90;;;;;;4956742;28;20477;-74
2023/12/20 05:23:13;;;;;;;149.68;87.28;;;-0.50;99.90;;;;;;4943348;29;20099;-74
2023/12/20 05:25:39;;;;;;;143.07;91.18;;;-0.50;99.90;;;;;;4958098;28;20046;-75
2023/12/20 05:28:05;;;;;;;132.93;88.63;;;-0.60;99.90;;;;;;4956736;28;20507;-74
2023/12/20 05:30:31;;;;;;;130.07;91.60;;;-0.60;99.90;;;;;;4930549;29;20066;-74
2023/12/20 05:32:57;;;;;;;140.82;97.15;;;-0.60;99.90;;;;;;4949574;28;20050;-75
2023/12/20 05:35:23;;;;;;;158.73;105.38;;;-0.50;99.90;;;;;;4927009;29;20112;-76
2023/12/20 05:37:49;;;;;;;159.95;103.18;;;-0.50;99.90;;;;;;4924649;29;20031;-76
2023/12/20 05:40:15;;;;;;;156.63;104.20;;;-0.40;99.90;;;;;;4928368;29;20082;-75
2023/12/20 05:42:41;;;;;;;221.90;132.20;;;-0.40;99.90;;;;;;4938977;29;20106;-76
2023/12/20 05:45:08;;;;;;;271.17;157.23;;;-0.40;99.90;;;;;;4937477;29;20043;-76
2023/12/20 05:47:33;;;;;;;215.23;125.72;;;-0.40;99.90;;;;;;4936624;29;20361;-77
2023/12/20 05:49:59;;;;;;;199.27;113.47;;;-0.40;99.90;;;;;;4937093;29;20035;-76
2023/12/20 05:52:25;;;;;;;189.23;108.80;;;-0.30;99.90;;;;;;4930523;29;20082;-75
2023/12/20 05:54:52;;;;;;;185.48;100.50;;;-0.30;99.90;;;;;;4929199;29;20502;-74
2023/12/20 05:57:17;;;;;;;152.40;91.47;;;-0.30;99.90;;;;;;4935645;29;20468;-77
2023/12/20 05:59:43;;;;;;;147.27;89.45;;;-0.20;99.90;;;;;;4933189;29;20087;-77
2023/12/20 06:02:09;;;;;;;154.38;89.15;;;-0.20;99.90;;;;;;4931831;29;20030;-77
2023/12/20 06:04:35;;;;;;;163.82;93.10;;;-0.30;99.90;;;;;;4935014;29;20031;-77
2023/12/20 06:07:03;;;;;;;148.23;97.97;;;-0.30;99.90;;;;;;4935443;29;20110;-77
2023/12/20 06:09:29;;;;;;;151.50;95.03;;;-0.20;99.90;;;;;;4936910;29;20075;-77
2023/12/20 06:11:55;;;;;;;130.02;88.10;;;-0.20;99.90;;;;;;4936821;29;20040;-77
2023/12/20 06:14:21;;;;;;;144.82;92.85;;;-0.30;99.90;;;;;;4925375;29;20056;-77
2023/12/20 06:16:47;;;;;;;142.90;94.72;;;-0.20;99.90;;;;;;4935092;29;20074;-77
2023/12/20 06:19:13;;;;;;;157.57;102.10;;;-0.10;99.90;;;;;;4935620;29;20024;-77
2023/12/20 06:21:39;;;;;;;161.88;106.15;;;-0.10;99.90;;;;;;4924095;29;20043;-76
2023/12/20 06:24:05;;;;;;;159.32;112.78;;;-0.20;99.90;;;;;;4936164;29;20384;-77
2023/12/20 06:26:31;;;;;;;163.75;111.55;;;-0.10;99.90;;;;;;4935925;29;20039;-76
2023/12/20 06:28:57;;;;;;;183.52;122.80;;;-0.10;99.90;;;;;;4933912;29;20016;-77
2023/12/20 06:31:23;;;;;;;219.07;134.30;;;0.00;99.90;;;;;;4936594;29;20047;-76
2023/12/20 06:33:57;;;;;;;261.42;129.52;;;0.00;99.90;;;;;;4941728;28;20531;-75
2023/12/20 06:36:24;;;;;;;270.48;130.65;;;0.10;99.90;;;;;;4930310;29;20527;-76
2023/12/20 06:38:50;;;;;;;291.25;128.20;;;0.20;99.90;;;;;;4936632;29;20032;-76
2023/12/20 06:41:16;;;;;;;277.38;121.80;;;0.30;99.90;;;;;;4936166;29;20491;-76
2023/12/20 06:43:42;;;;;;;327.02;142.55;;;0.40;99.90;;;;;;4936347;29;20082;-76
2023/12/20 06:46:08;;;;;;;252.40;132.85;;;0.30;99.90;;;;;;4935978;29;20480;-75
2023/12/20 06:48:35;;;;;;;241.10;124.43;;;0.30;99.90;;;;;;4933977;29;20028;-75
2023/12/20 06:51:04;;;;;;;360.73;142.00;;;0.30;99.90;;;;;;4934740;29;20051;-76
2023/12/20 06:53:30;;;;;;;294.73;130.85;;;0.20;99.90;;;;;;4918958;29;20043;-75
2023/12/20 06:55:56;;;;;;;236.85;125.80;;;0.20;99.90;;;;;;4936382;29;20087;-76
2023/12/20 06:58:22;;;;;;;224.02;124.18;;;0.10;99.90;;;;;;4935964;29;20028;-76
2023/12/20 07:00:49;;;;;;;308.85;129.60;;;0.00;99.90;;;;;;4936060;29;20032;-75
2023/12/20 07:03:15;;;;;;;349.30;134.63;;;0.00;99.90;;;;;;4935653;29;20019;-76
2023/12/20 07:05:40;;;;;;;299.90;127.57;;;0.00;99.90;;;;;;4935977;29;20051;-76
2023/12/20 07:08:06;;;;;;;316.90;125.22;;;0.00;99.90;;;;;;4935488;29;20099;-76
2023/12/20 07:10:33;;;;;;;251.20;130.13;;;0.10;99.90;;;;;;4936026;29;20439;-75
2023/12/20 07:12:58;;;;;;;222.40;131.00;;;0.10;99.90;;;;;;4934086;29;20074;-76
2023/12/20 07:15:24;;;;;;;255.18;132.95;;;0.10;99.90;;;;;;4936075;29;20032;-76
2023/12/20 07:17:50;;;;;;;212.68;121.63;;;0.20;99.90;;;;;;4935100;29;20090;-76
2023/12/20 07:20:17;;;;;;;225.10;121.53;;;0.30;99.90;;;;;;4935781;29;20370;-75
2023/12/20 07:22:43;;;;;;;267.58;134.63;;;0.30;99.90;;;;;;4935443;29;20016;-76
2023/12/20 07:25:09;;;;;;;217.50;127.00;;;0.30;99.90;;;;;;4935402;29;20376;-76
2023/12/20 07:27:35;;;;;;;304.13;155.52;;;0.30;99.90;;;;;;4934265;29;20047;-74
2023/12/20 07:30:00;;;;;;;314.70;154.85;;;0.40;99.90;;;;;;4935350;29;20032;-75
2023/12/20 07:32:27;;;;;;;254.07;137.27;;;0.40;99.90;;;;;;4935441;29;20118;-76
2023/12/20 07:34:53;;;;;;;275.67;147.18;;;0.50;99.90;;;;;;4942652;28;20071;-75
2023/12/20 07:37:19;;;;;;;304.63;154.18;;;0.60;99.90;;;;;;4954437;28;20023;-76
2023/12/20 07:39:45;;;;;;;273.40;145.43;;;0.60;99.90;;;;;;4954418;29;20041;-76
2023/12/20 07:42:11;;;;;;;268.13;145.52;;;0.60;99.90;;;;;;4936976;29;20039;-75
2023/12/20 07:44:37;;;;;;;233.50;135.68;;;0.60;99.90;;;;;;4954078;29;20126;-76
2023/12/20 07:47:03;;;;;;;268.85;135.55;;;0.70;99.90;;;;;;4936568;29;20542;-76
2023/12/20 07:49:30;;;;;;;300.23;146.85;;;0.70;99.90;;;;;;4954209;29;20447;-76
2023/12/20 07:51:56;;;;;;;285.73;149.65;;;0.80;99.90;;;;;;4954198;29;20031;-76
2023/12/20 07:54:21;;;;;;;265.35;142.57;;;0.80;99.90;;;;;;4954344;29;20023;-76
2023/12/20 07:56:48;;;;;;;287.00;155.82;;;1.00;99.90;;;;;;4954033;28;20039;-76
2023/12/20 07:59:14;;;;;;;307.65;147.15;;;1.00;99.90;;;;;;4936928;29;20476;-76
2023/12/20 08:01:40;;;;;;;263.25;146.13;;;1.00;99.90;;;;;;4953682;29;20530;-76
2023/12/20 08:04:06;;;;;;;274.13;150.13;;;1.10;99.90;;;;;;4936834;29;20066;-76
2023/12/20 08:06:32;;;;;;;258.90;147.43;;;1.20;99.90;;;;;;4953747;29;20058;-76
2023/12/20 08:08:58;;;;;;;252.02;153.45;;;1.30;99.90;;;;;;4954262;29;20034;-76
2023/12/20 08:11:24;;;;;;;295.52;172.45;;;1.30;99.90;;;;;;4936452;29;20161;-76
2023/12/20 08:13:51;;;;;;;294.13;176.45;;;1.30;99.90;;;;;;4936798;29;20063;-75
2023/12/20 08:16:17;;;;;;;347.63;212.68;;;1.30;99.90;;;;;;4953654;28;20115;-76
2023/12/20 08:18:43;;;;;;;319.52;203.50;;;1.40;99.90;;;;;;4953915;29;20089;-75
2023/12/20 08:21:09;;;;;;;262.73;162.02;;;1.40;99.90;;;;;;4953776;29;20450;-77
2023/12/20 08:23:35;;;;;;;315.83;183.30;;;1.50;99.90;;;;;;4953871;29;20027;-76
2023/12/20 08:26:06;;;;;;;277.17;167.30;;;1.40;99.90;;;;;;4954079;28;20050;-75
2023/12/20 08:28:31;;;;;;;277.83;162.68;;;1.20;99.90;;;;;;4953797;29;20090;-75
2023/12/20 08:30:57;;;;;;;274.20;168.25;;;1.20;99.90;;;;;;4953726;29;20102;-76
2023/12/20 08:33:23;;;;;;;273.42;182.55;;;1.20;99.90;;;;;;4953575;29;20047;-76
2023/12/20 08:35:49;;;;;;;278.35;185.25;;;1.30;99.90;;;;;;4953657;29;20050;-75
2023/12/20 08:38:16;;;;;;;283.50;192.23;;;1.50;99.90;;;;;;4953683;29;20114;-76
2023/12/20 08:40:42;;;;;;;253.50;179.70;;;1.60;99.90;;;;;;4953452;29;20475;-76
2023/12/20 08:43:08;;;;;;;275.90;188.90;;;1.70;99.90;;;;;;4953896;29;20038;-76
2023/12/20 08:45:34;;;;;;;305.02;202.32;;;1.90;99.90;;;;;;4954131;28;20027;-75
2023/12/20 08:48:00;;;;;;;317.95;208.95;;;1.90;99.90;;;;;;4957768;28;20031;-76
2023/12/20 08:50:25;;;;;;;332.17;221.68;;;2.10;99.90;;;;;;4957328;28;20087;-75
2023/12/20 08:52:52;;;;;;;329.13;219.65;;;2.10;99.90;;;;;;4957695;29;20062;-75
2023/12/20 08:55:19;;;;;;;330.10;226.50;;;2.20;99.90;;;;;;4957140;29;20459;-78
2023/12/20 08:57:45;;;;;;;332.73;228.77;;;2.20;99.90;;;;;;4957414;28;20028;-75
2023/12/20 09:00:11;;;;;;;325.13;230.98;;;2.40;99.90;;;;;;4956803;28;20090;-76
2023/12/20 09:02:37;;;;;;;324.55;222.25;;;2.40;99.90;;;;;;4957421;29;20062;-77
2023/12/20 09:05:03;;;;;;;342.27;243.10;;;2.50;99.90;;;;;;4939512;28;20562;-76
2023/12/20 09:07:32;;;;;;;332.38;227.52;;;2.60;99.90;;;;;;4957353;28;20023;-77
2023/12/20 09:09:59;;;;;;;310.60;204.27;;;2.70;99.90;;;;;;4939593;29;20028;-75
2023/12/20 09:12:25;;;;;;;284.50;192.13;;;2.80;99.90;;;;;;4957189;29;20030;-77
2023/12/20 09:14:52;;;;;;;277.80;191.60;;;2.90;99.90;;;;;;4956847;28;20027;-76
2023/12/20 09:17:18;;;;;;;276.88;202.30;;;3.00;99.90;;;;;;4957040;28;20051;-77
2023/12/20 09:19:45;;;;;;;325.85;225.50;;;3.10;99.90;;;;;;4957034;29;20027;-76
2023/12/20 09:22:11;;;;;;;326.25;231.25;;;3.20;99.90;;;;;;4956919;28;20415;-77
2023/12/20 09:24:38;;;;;;;347.95;252.10;;;3.20;99.90;;;;;;4956819;29;20027;-75
2023/12/20 09:27:07;;;;;;;379.30;264.23;;;3.20;99.90;;;;;;4956671;28;20035;-77
2023/12/20 09:29:33;;;;;;;379.55;271.42;;;3.30;99.90;;;;;;4956507;28;20019;-76
2023/12/20 09:31:59;;;;;;;387.20;281.35;;;3.40;99.90;;;;;;4956847;29;20027;-76
2023/12/20 09:34:25;;;;;;;368.95;270.38;;;3.50;99.90;;;;;;4956087;28;20102;-77
2023/12/20 09:36:52;;;;;;;375.52;271.42;;;3.40;99.90;;;;;;4957003;29;20043;-76
2023/12/20 09:39:19;;;;;;;362.35;256.02;;;3.50;99.90;;;;;;4956541;28;20371;-76
2023/12/20 09:41:49;;;;;;;328.83;244.63;;;3.60;99.90;;;;;;4956751;28;20046;-75
2023/12/20 09:44:18;;;;;;;305.83;224.60;;;3.60;99.90;;;;;;4956153;28;20098;-76
2023/12/20 09:46:45;;;;;;;271.20;190.75;;;3.70;99.90;;;;;;4956397;29;20089;-77
2023/12/20 09:49:13;;;;;;;239.60;174.02;;;3.80;99.90;;;;;;4939369;28;20081;-76
2023/12/20 09:51:40;;;;;;;236.35;169.80;;;3.70;99.90;;;;;;4956145;28;20360;-76
2023/12/20 09:54:06;;;;;;;230.23;162.88;;;3.90;99.90;;;;;;4956646;29;20110;-76
2023/12/20 09:56:33;;;;;;;193.27;140.13;;;4.00;99.90;;;;;;4955707;28;20479;-76
2023/12/20 09:59:00;;;;;;;152.05;104.38;;;4.20;99.90;;;;;;4955858;28;20027;-76
2023/12/20 10:01:27;;;;;;;131.30;91.50;;;4.00;99.90;;;;;;4955788;29;20535;-77
2023/12/20 10:03:55;;;;;;;122.90;89.97;;;3.90;99.90;;;;;;4956153;28;20502;-77
2023/12/20 10:06:21;;;;;;;133.95;91.05;;;4.00;99.90;;;;;;4955902;29;20043;-76
2023/12/20 10:08:48;;;;;;;124.00;87.15;;;4.10;99.90;;;;;;4955847;29;20031;-76
2023/12/20 10:11:14;;;;;;;121.45;87.78;;;4.10;99.90;;;;;;4956092;29;20023;-76
2023/12/20 10:13:43;;;;;;;113.68;83.47;;;4.10;99.90;;;;;;4955861;28;20062;-77
2023/12/20 10:16:09;;;;;;;117.30;85.10;;;4.20;99.90;;;;;;4955921;28;20038;-75
2023/12/20 10:18:35;;;;;;;121.63;86.88;;;4.20;99.90;;;;;;4955779;28;20027;-75
2023/12/20 10:21:03;;;;;;;111.15;79.88;;;4.30;99.90;;;;;;4955911;28;20031;-75
2023/12/20 10:23:30;;;;;;;101.88;72.78;;;4.50;99.90;;;;;;4955839;29;20059;-77
2023/12/20 10:25:59;;;;;;;107.00;72.70;;;4.50;99.90;;;;;;4955761;29;20086;-76
2023/12/20 10:28:27;;;;;;;82.93;62.53;;;4.50;99.90;;;;;;4938618;29;20111;-76
2023/12/20 10:30:58;;;;;;;79.38;60.05;;;4.50;99.90;;;;;;4955096;28;20026;-75
2023/12/20 10:33:32;;;;;;;80.75;55.22;;;4.70;99.90;;;;;;4955498;28;20078;-75
2023/12/20 10:35:58;;;;;;;74.95;53.78;;;4.80;99.90;;;;;;4955522;29;20047;-76
2023/12/20 10:38:24;;;;;;;74.32;53.17;;;4.90;99.90;;;;;;4955653;28;20503;-75
2023/12/20 10:40:57;;;;;;;73.10;52.20;;;4.90;99.90;;;;;;4955441;29;20038;-76
2023/12/20 10:43:26;;;;;;;77.13;53.58;;;4.90;99.90;;;;;;4955239;28;20479;-75
2023/12/20 10:45:52;;;;;;;74.50;49.85;;;5.00;99.90;;;;;;4937936;28;20071;-76
2023/12/20 10:48:26;;;;;;;76.03;49.15;;;5.10;99.90;;;;;;4938518;29;20034;-76
2023/12/20 10:50:54;;;;;;;71.28;49.08;;;5.20;99.90;;;;;;4955561;29;20027;-75
2023/12/20 10:53:21;;;;;;;72.07;48.20;;;5.30;99.90;;;;;;4955015;29;20024;-75
2023/12/20 10:55:51;;;;;;;71.38;51.08;;;5.40;99.90;;;;;;4955443;28;20053;-75
2023/12/20 10:58:20;;;;;;;72.30;49.67;;;5.50;99.90;;;;;;4954860;28;20035;-75
2023/12/20 11:00:48;;;;;;;81.13;50.55;;;5.60;99.90;;;;;;4954985;28;20043;-75
2023/12/20 11:03:16;;;;;;;76.22;50.60;;;5.80;99.90;;;;;;4954939;29;20051;-75
2023/12/20 11:05:54;;;;;;;75.88;49.97;;;6.00;99.90;;;;;;4954912;28;20047;-75
2023/12/20 11:08:39;;;;;;;81.00;53.28;;;6.00;99.90;;;;;;4954794;28;20031;-75
2023/12/20 11:11:24;;;;;;;87.60;60.10;;;6.00;99.90;;;;;;4954910;28;20019;-76
2023/12/20 11:14:05;;;;;;;98.50;65.43;;;5.90;99.90;;;;;;4922088;29;20031;-76
2023/12/20 11:16:40;;;;;;;102.15;72.43;;;5.80;99.90;;;;;;4954725;29;20024;-75
2023/12/20 11:19:07;;;;;;;104.07;70.68;;;5.80;99.90;;;;;;4954962;29;20106;-75
2023/12/20 11:21:32;;;;;;;90.07;66.50;;;5.90;99.90;;;;;;4954375;28;20496;-75
2023/12/20 11:24:00;;;;;;;89.03;65.07;;;6.20;99.90;;;;;;4954842;28;20134;-75
2023/12/20 11:26:30;;;;;;;89.95;59.92;;;6.30;99.90;;;;;;4954360;29;20505;-76
2023/12/20 11:29:30;;;;;;;89.75;62.33;;;6.40;99.90;;;;;;4954833;28;20484;-76
2023/12/20 11:31:56;;;;;;;88.63;57.30;;;6.70;99.90;;;;;;4944799;29;20081;-75
2023/12/20 11:34:26;;;;;;;89.18;61.75;;;6.80;99.90;;;;;;4954059;28;20126;-75
2023/12/20 11:36:58;;;;;;;91.38;63.08;;;6.80;99.90;;;;;;4954597;28;20500;-75
2023/12/20 11:39:27;;;;;;;89.10;61.08;;;7.00;99.90;;;;;;4954464;29;20538;-76
2023/12/20 11:41:56;;;;;;;84.15;58.65;;;7.10;99.90;;;;;;4954392;28;20052;-75
2023/12/20 11:44:22;;;;;;;87.88;57.80;;;7.20;99.90;;;;;;4954496;28;20038;-75
2023/12/20 11:46:48;;;;;;;85.85;57.63;;;7.20;99.90;;;;;;4953853;29;20039;-75
2023/12/20 11:49:14;;;;;;;82.68;60.25;;;7.20;99.90;;;;;;4954100;28;20031;-76
2023/12/20 11:51:43;;;;;;;87.47;62.92;;;7.10;99.90;;;;;;4954066;29;20027;-75
2023/12/20 11:54:11;;;;;;;94.65;66.28;;;7.00;99.90;;;;;;4937232;29;20026;-75
2023/12/20 11:56:37;;;;;;;92.85;66.32;;;7.00;99.90;;;;;;4953931;29;20154;-75
2023/12/20 11:59:03;;;;;;;95.20;67.03;;;7.00;99.90;;;;;;4954185;28;20133;-74
2023/12/20 12:01:29;;;;;;;100.65;71.60;;;7.00;99.90;;;;;;4936220;28;20062;-74
2023/12/20 12:04:05;;;;;;;88.70;65.50;;;7.10;99.90;;;;;;4953858;29;20035;-76
2023/12/20 12:06:31;;;;;;;92.82;66.53;;;7.00;99.90;;;;;;4954136;29;20043;-75
2023/12/20 12:08:57;;;;;;;91.90;66.15;;;7.00;99.90;;;;;;4953892;29;20506;-74
2023/12/20 12:11:23;;;;;;;86.45;64.78;;;6.90;99.90;;;;;;4953932;29;20031;-73
2023/12/20 12:13:49;;;;;;;92.85;67.35;;;6.80;99.90;;;;;;4953769;29;20023;-74
2023/12/20 12:16:20;;;;;;;96.00;68.60;;;6.80;99.90;;;;;;4953744;29;20051;-74